100LL.CA
Aviation Fuel Pricing for Canadians
Please upgrade your browser - Tested with IE9, FireFox, Chrome, Safari

Fuel Airports Other Help
Prices Economy Info List METAR/TAF Kneeboard Help

Reference Airport: DEER LAKE, NL
N 49 12 33  W 057 23 40
Provinces to show:

CYDF DEER LAKE, NL
WEATHER
METARCYDF 221400Z 21010KT 15SM FEW030 OVC074 18/10 A2992 RMK SC1AC7 SLP134 DENSITY ALT 500FT
TAFTAF CYDF 221340Z 2214/2314 20010KT P6SM FEW030 SCT080 TEMPO 2214/2215 BKN080 FM221500 24010G20KT P6SM BKN070 TEMPO 2215/2221 P6SM -SHRA FM222200 25012G22KT P6SM FEW070 FM230200 22005KT P6SM SKC PROB30 2302/2310 2SM BR RMK NXT FCST BY 222000Z
OTHER SITES

FlightAware

FltPlan

Google Maps

SkyVector
FUEL
FBO 100LL
member
100LL
public
JETA MOGAS
Woodward Aviation Services (2018-03-20)1.400
  Note: Landing fees $16.48!
Nalair (2022-10-03)4.681
  Note: Overnight ramp fee $40+taxes not waived with fuel purchase.
Canada Flight Supplement - CYDF
(opens in new tab/window)


Please Send Updates!

Desktop Version ]  [ Mobile Version ]  [ Disclaimer ]